createdAt,value
2023-05-21T00:00:56.815Z,9.20
2023-05-21T00:03:46.341Z,9.60
2023-05-21T00:06:36.064Z,9.10
2023-05-21T00:09:24.982Z,9.50
2023-05-21T00:12:13.561Z,9.87
2023-05-21T00:15:02.664Z,9.57
2023-05-21T00:17:52.838Z,11.33
2023-05-21T00:20:41.825Z,9.77
2023-05-21T00:23:32.800Z,9.90
2023-05-21T00:26:21.732Z,9.10
2023-05-21T00:29:10.274Z,9.20
2023-05-21T00:31:59.148Z,10.10
2023-05-21T00:34:49.217Z,9.40
2023-05-21T00:37:38.340Z,9.77
2023-05-21T00:40:26.825Z,9.83
2023-05-21T00:43:15.462Z,9.60
2023-05-21T00:46:04.145Z,10.33
2023-05-21T00:48:53.457Z,10.10
2023-05-21T00:51:45.321Z,9.73
2023-05-21T00:54:33.966Z,9.40
2023-05-21T00:57:24.220Z,9.63
2023-05-21T01:00:18.284Z,9.30
2023-05-21T01:03:08.042Z,8.90
2023-05-21T01:06:00.813Z,9.60
2023-05-21T01:08:51.270Z,9.00
2023-05-21T01:11:42.505Z,8.93
2023-05-21T01:14:32.946Z,9.00
2023-05-21T01:17:24.393Z,9.83
2023-05-21T01:20:14.679Z,9.97
2023-05-21T01:23:04.891Z,11.20
2023-05-21T01:25:53.410Z,11.40
2023-05-21T01:28:42.348Z,10.03
2023-05-21T01:31:43.782Z,10.33
2023-05-21T01:34:40.169Z,9.60
2023-05-21T01:37:35.959Z,9.83
2023-05-21T01:40:32.961Z,10.40
2023-05-21T01:43:22.713Z,10.83
2023-05-21T01:46:13.793Z,10.43
2023-05-21T01:49:02.920Z,10.57
2023-05-21T01:51:52.058Z,10.30
2023-05-21T01:54:40.557Z,10.53
2023-05-21T01:57:30.547Z,10.73
2023-05-21T02:00:20.297Z,10.97
2023-05-21T02:03:09.090Z,11.40
2023-05-21T02:05:57.953Z,10.23
2023-05-21T02:08:46.753Z,10.30
2023-05-21T02:11:35.809Z,10.27
2023-05-21T02:14:26.486Z,10.73
2023-05-21T02:17:14.931Z,13.37
2023-05-21T02:20:11.582Z,10.70
2023-05-21T02:23:00.161Z,10.43
2023-05-21T02:25:48.768Z,10.63
2023-05-21T02:28:37.349Z,10.80
2023-05-21T02:31:27.306Z,11.53
2023-05-21T02:34:16.759Z,10.93
2023-05-21T02:37:05.329Z,11.00
2023-05-21T02:39:53.923Z,11.37
2023-05-21T02:42:43.031Z,10.43
2023-05-21T02:45:31.771Z,11.10
2023-05-21T02:48:21.819Z,11.00
2023-05-21T02:51:10.277Z,12.13
2023-05-21T02:53:58.887Z,10.83
2023-05-21T02:56:47.273Z,10.13
2023-05-21T02:59:35.878Z,10.10
2023-05-21T03:02:24.865Z,11.90
2023-05-21T03:05:15.357Z,9.07
2023-05-21T03:08:03.895Z,10.23
2023-05-21T03:10:52.298Z,9.70
2023-05-21T03:13:40.923Z,9.90
2023-05-21T03:16:34.612Z,9.60
2023-05-21T03:19:25.058Z,11.03
2023-05-21T03:22:15.012Z,9.90
2023-05-21T03:25:03.635Z,10.17
2023-05-21T03:27:53.339Z,9.70
2023-05-21T03:30:42.084Z,10.57
2023-05-21T03:33:30.656Z,9.97
2023-05-21T03:36:19.424Z,10.30
2023-05-21T03:39:09.224Z,10.63
2023-05-21T03:41:57.707Z,10.23
2023-05-21T03:44:46.435Z,10.50
2023-05-21T03:47:36.107Z,10.10
2023-05-21T03:50:24.608Z,10.30
2023-05-21T03:53:13.981Z,10.70
2023-05-21T03:56:03.975Z,10.40
2023-05-21T03:58:52.953Z,10.80
2023-05-21T04:01:41.473Z,10.33
2023-05-21T04:04:30.692Z,11.30
2023-05-21T04:07:19.319Z,11.33
2023-05-21T04:10:08.881Z,10.20
2023-05-21T04:12:58.843Z,10.67
2023-05-21T04:15:47.419Z,10.57
2023-05-21T04:18:36.201Z,10.03
2023-05-21T04:21:24.649Z,10.77
2023-05-21T04:24:13.125Z,11.23
2023-05-21T04:27:01.770Z,10.97
2023-05-21T04:29:51.800Z,11.73
2023-05-21T04:32:40.415Z,11.80
2023-05-21T04:35:29.070Z,11.17
2023-05-21T04:38:19.700Z,12.30
2023-05-21T04:41:10.926Z,11.13
2023-05-21T04:43:59.602Z,11.53
2023-05-21T04:46:50.789Z,11.60
2023-05-21T04:49:39.427Z,11.87
2023-05-21T04:52:28.274Z,11.67
2023-05-21T04:55:19.355Z,12.13
2023-05-21T04:58:08.209Z,11.27
2023-05-21T05:00:58.130Z,12.10
2023-05-21T05:03:48.528Z,12.00
2023-05-21T05:06:37.342Z,12.37
2023-05-21T05:09:26.090Z,12.37
2023-05-21T05:12:14.638Z,12.27
2023-05-21T05:15:03.164Z,11.60
2023-05-21T05:17:51.908Z,12.47
2023-05-21T05:20:41.844Z,12.70
2023-05-21T05:23:30.468Z,12.90
2023-05-21T05:26:19.052Z,12.90
2023-05-21T05:29:07.496Z,11.43
2023-05-21T05:31:56.016Z,13.27
2023-05-21T05:34:46.952Z,12.07
2023-05-21T05:37:36.906Z,11.60
2023-05-21T05:40:25.512Z,12.23
2023-05-21T05:43:14.106Z,13.50
2023-05-21T05:46:02.641Z,12.30
2023-05-21T05:48:51.124Z,12.60
2023-05-21T05:51:39.711Z,12.30
2023-05-21T05:54:29.599Z,11.87
2023-05-21T05:57:18.145Z,13.07
2023-05-21T06:00:07.830Z,12.30
2023-05-21T06:02:56.550Z,12.60
2023-05-21T06:05:45.643Z,11.63
2023-05-21T06:08:37.348Z,12.00
2023-05-21T06:11:28.293Z,12.90
2023-05-21T06:14:16.944Z,13.60
2023-05-21T06:17:05.862Z,12.57
2023-05-21T06:19:54.379Z,12.77
2023-05-21T06:22:42.827Z,12.33
2023-05-21T06:25:32.015Z,11.70
2023-05-21T06:28:22.155Z,12.50
2023-05-21T06:31:11.977Z,12.47
2023-05-21T06:34:00.952Z,13.57
2023-05-21T06:36:49.997Z,13.00
2023-05-21T06:39:38.534Z,14.87
2023-05-21T06:42:27.066Z,12.70
2023-05-21T06:45:16.889Z,12.20
2023-05-21T06:48:05.983Z,13.50
2023-05-21T06:50:54.460Z,12.50
2023-05-21T06:53:43.046Z,13.57
2023-05-21T06:56:31.677Z,12.83
2023-05-21T06:59:20.232Z,13.70
2023-05-21T07:02:10.172Z,12.63
2023-05-21T07:04:59.195Z,13.47
2023-05-21T07:07:47.701Z,13.43
2023-05-21T07:10:36.289Z,12.63
2023-05-21T07:13:24.885Z,13.90
2023-05-21T07:16:13.471Z,12.43
2023-05-21T07:19:03.600Z,12.83
2023-05-21T07:21:52.094Z,13.20
2023-05-21T07:24:40.707Z,12.07
2023-05-21T07:27:29.185Z,12.40
2023-05-21T07:30:18.054Z,17.17
2023-05-21T07:33:06.748Z,13.00
2023-05-21T07:35:56.752Z,12.23
2023-05-21T07:38:45.833Z,12.43
2023-05-21T07:41:34.739Z,12.93
2023-05-21T07:44:24.517Z,12.70
2023-05-21T07:47:12.943Z,16.43
2023-05-21T07:50:01.477Z,12.53
2023-05-21T07:52:51.468Z,12.83
2023-05-21T07:55:47.607Z,14.23
2023-05-21T07:58:36.319Z,12.43
2023-05-21T08:01:25.122Z,11.00
2023-05-21T08:04:14.004Z,11.03
2023-05-21T08:07:02.678Z,13.77
2023-05-21T08:09:54.208Z,10.90
2023-05-21T08:12:42.670Z,10.40
2023-05-21T08:15:31.306Z,12.30
2023-05-21T08:18:19.737Z,10.53
2023-05-21T08:21:08.632Z,10.33
2023-05-21T08:23:57.347Z,10.17
2023-05-21T08:26:49.705Z,11.03
2023-05-21T08:29:38.224Z,11.53
2023-05-21T08:32:27.009Z,9.83
2023-05-21T08:35:15.628Z,9.03
2023-05-21T08:38:04.138Z,9.60
2023-05-21T08:40:54.032Z,9.60
2023-05-21T08:43:44.925Z,10.10
2023-05-21T08:46:35.171Z,9.70
2023-05-21T08:49:28.161Z,8.53
2023-05-21T08:52:17.045Z,11.93
2023-05-21T08:55:06.264Z,8.83
2023-05-21T08:57:56.082Z,9.33
2023-05-21T09:00:46.141Z,8.80
2023-05-21T09:03:35.282Z,8.67
2023-05-21T09:06:25.696Z,8.47
2023-05-21T09:09:19.516Z,7.97
2023-05-21T09:12:09.110Z,7.67
2023-05-21T09:14:58.745Z,8.80
2023-05-21T09:17:49.723Z,7.13
2023-05-21T09:20:38.248Z,8.10
2023-05-21T09:23:30.241Z,8.23
2023-05-21T09:26:18.813Z,7.80
2023-05-21T09:29:07.388Z,8.07
2023-05-21T09:31:56.008Z,7.40
2023-05-21T09:34:46.063Z,7.37
2023-05-21T09:37:38.136Z,7.20
2023-05-21T09:40:26.870Z,9.30
2023-05-21T09:43:16.854Z,9.00
2023-05-21T09:46:05.647Z,7.97
2023-05-21T09:48:54.251Z,7.70
2023-05-21T09:51:45.944Z,7.00
2023-05-21T09:54:35.540Z,6.90
2023-05-21T09:57:27.745Z,7.25
2023-05-21T10:00:21.382Z,7.72
2023-05-21T10:03:13.121Z,8.85
2023-05-21T10:06:01.918Z,6.80
2023-05-21T10:08:55.241Z,6.50
2023-05-21T10:11:46.184Z,7.53
2023-05-21T10:14:35.995Z,6.47
2023-05-21T10:17:26.406Z,6.28
2023-05-21T10:20:15.248Z,6.03
2023-05-21T10:23:04.355Z,6.53
2023-05-21T10:25:55.255Z,5.93
2023-05-21T10:28:44.455Z,6.63
2023-05-21T10:31:33.874Z,5.93
2023-05-21T10:34:24.682Z,6.18
2023-05-21T10:37:14.760Z,6.60
2023-05-21T10:40:04.635Z,6.10
2023-05-21T10:43:30.666Z,5.85
2023-05-21T10:46:47.212Z,5.90
2023-05-21T10:49:58.770Z,5.75
2023-05-21T10:53:00.556Z,5.43
2023-05-21T10:56:00.061Z,5.68
2023-05-21T10:59:15.435Z,5.45
2023-05-21T11:02:05.118Z,5.47
2023-05-21T11:05:02.175Z,5.65
2023-05-21T11:07:56.481Z,5.43
2023-05-21T11:10:46.168Z,5.50
2023-05-21T11:13:48.838Z,5.22
2023-05-21T11:16:46.982Z,5.68
2023-05-21T11:19:40.939Z,6.10
2023-05-21T11:22:29.737Z,5.90
2023-05-21T11:25:19.873Z,5.60
2023-05-21T11:28:09.771Z,5.60
2023-05-21T11:31:26.253Z,5.35
2023-05-21T11:34:16.339Z,5.35
2023-05-21T11:37:26.859Z,5.05
2023-05-21T11:40:20.684Z,5.03
2023-05-21T11:43:09.289Z,5.32
2023-05-21T11:45:58.436Z,4.90
2023-05-21T11:48:48.315Z,4.78
2023-05-21T11:51:38.960Z,6.57
2023-05-21T11:54:27.710Z,4.85
2023-05-21T11:57:17.873Z,5.07
2023-05-21T12:00:14.120Z,5.00
2023-05-21T12:03:02.692Z,4.97
2023-05-21T12:05:52.464Z,4.80
2023-05-21T12:08:42.517Z,4.72
2023-05-21T12:11:31.126Z,4.88
2023-05-21T12:14:19.850Z,5.00
2023-05-21T12:17:10.397Z,4.65
2023-05-21T12:19:59.126Z,4.63
2023-05-21T12:22:49.571Z,4.60
2023-05-21T12:25:39.522Z,5.32
2023-05-21T12:28:28.061Z,4.95
2023-05-21T12:31:17.066Z,5.15
2023-05-21T12:34:05.904Z,5.32
2023-05-21T12:36:54.548Z,4.60
2023-05-21T12:39:45.303Z,4.80
2023-05-21T12:42:35.966Z,4.72
2023-05-21T12:45:24.618Z,4.97
2023-05-21T12:48:13.354Z,4.72
2023-05-21T12:51:01.846Z,6.57
2023-05-21T12:53:50.469Z,5.07
2023-05-21T12:56:46.342Z,5.72
2023-05-21T12:59:46.688Z,5.68
2023-05-21T13:02:39.598Z,5.43
2023-05-21T13:05:28.196Z,5.22
2023-05-21T13:08:17.267Z,5.85
2023-05-21T13:11:06.220Z,4.95
2023-05-21T13:13:55.209Z,5.53
2023-05-21T13:16:48.102Z,5.38
2023-05-21T13:19:36.727Z,5.15
2023-05-21T13:22:25.365Z,5.10
2023-05-21T13:25:15.847Z,4.68
2023-05-21T13:28:06.216Z,5.60
2023-05-21T13:30:56.022Z,5.35
2023-05-21T13:33:46.023Z,5.18
2023-05-21T13:36:34.722Z,5.13
2023-05-21T13:39:26.885Z,6.10
2023-05-21T13:42:15.795Z,5.18
2023-05-21T13:45:05.108Z,5.13
2023-05-21T13:47:53.835Z,5.38
2023-05-21T13:50:43.829Z,5.60
2023-05-21T13:53:32.326Z,5.20
2023-05-21T13:56:21.977Z,4.90
2023-05-21T13:59:10.500Z,5.38
2023-05-21T14:01:59.341Z,5.32
2023-05-21T14:04:47.967Z,5.00
2023-05-21T14:07:37.918Z,5.63
2023-05-21T14:10:26.601Z,6.45
2023-05-21T14:13:19.462Z,5.03
2023-05-21T14:16:09.449Z,5.43
2023-05-21T14:18:58.923Z,4.65
2023-05-21T14:21:47.405Z,4.90
2023-05-21T14:24:37.311Z,4.87
2023-05-21T14:27:25.970Z,5.00
2023-05-21T14:30:14.588Z,5.10
2023-05-21T14:33:03.061Z,5.03
2023-05-21T14:35:52.733Z,4.53
2023-05-21T14:38:41.550Z,4.95
2023-05-21T14:41:31.626Z,4.83
2023-05-21T14:44:20.164Z,5.10
2023-05-21T14:47:08.766Z,7.30
2023-05-21T14:49:57.266Z,4.83
2023-05-21T14:52:45.817Z,4.40
2023-05-21T14:55:36.873Z,5.37
2023-05-21T14:58:27.172Z,4.60
2023-05-21T15:01:15.818Z,6.17
2023-05-21T15:04:04.410Z,5.17
2023-05-21T15:06:53.081Z,4.80
2023-05-21T15:09:41.548Z,5.00
2023-05-21T15:12:30.049Z,5.13
2023-05-21T15:15:21.089Z,4.43
2023-05-21T15:18:09.868Z,4.77
2023-05-21T15:20:59.376Z,4.53
2023-05-21T15:23:48.200Z,5.00
2023-05-21T15:26:38.312Z,5.10
2023-05-21T15:29:26.809Z,5.10
2023-05-21T15:32:16.987Z,4.47
2023-05-21T15:35:05.817Z,5.23
2023-05-21T15:37:54.424Z,4.63
2023-05-21T15:40:42.890Z,5.03
2023-05-21T15:43:31.403Z,4.67
2023-05-21T15:46:19.957Z,4.60
2023-05-21T15:49:10.297Z,4.60
2023-05-21T15:52:00.771Z,6.70
2023-05-21T15:54:49.212Z,4.63
2023-05-21T15:57:37.893Z,5.07
2023-05-21T16:00:26.524Z,4.87
2023-05-21T16:03:15.178Z,4.93
2023-05-21T16:06:06.542Z,6.87
2023-05-21T16:08:55.185Z,4.73
2023-05-21T16:11:44.821Z,5.30
2023-05-21T16:14:33.294Z,4.33
2023-05-21T16:17:21.829Z,4.63
2023-05-21T16:20:10.777Z,4.37
2023-05-21T16:23:00.726Z,4.00
2023-05-21T16:25:49.480Z,4.80
2023-05-21T16:28:38.088Z,4.20
2023-05-21T16:31:26.709Z,4.17
2023-05-21T16:34:15.303Z,4.63
2023-05-21T16:37:03.838Z,4.37
2023-05-21T16:39:53.778Z,5.03
2023-05-21T16:42:43.493Z,4.13
2023-05-21T16:45:39.714Z,4.47
2023-05-21T16:48:28.260Z,6.13
2023-05-21T16:51:16.741Z,4.60
2023-05-21T16:54:06.463Z,4.30
2023-05-21T16:56:56.376Z,5.13
2023-05-21T16:59:45.548Z,6.17
2023-05-21T17:02:34.071Z,4.43
2023-05-21T17:05:23.044Z,5.37
2023-05-21T17:08:11.674Z,4.90
2023-05-21T17:11:00.503Z,4.83
2023-05-21T17:13:50.365Z,4.57
2023-05-21T17:16:42.746Z,4.40
2023-05-21T17:19:31.338Z,4.10
2023-05-21T17:22:19.949Z,4.70
2023-05-21T17:25:09.652Z,5.70
2023-05-21T17:27:58.109Z,5.37
2023-05-21T17:30:49.596Z,4.30
2023-05-21T17:33:38.765Z,4.20
2023-05-21T17:36:27.291Z,4.70
2023-05-21T17:39:15.903Z,5.50
2023-05-21T17:42:04.439Z,4.97
2023-05-21T17:44:52.999Z,4.70
2023-05-21T17:47:42.963Z,4.63
2023-05-21T17:50:31.651Z,4.20
2023-05-21T17:53:20.310Z,4.40
2023-05-21T17:56:11.388Z,4.30
2023-05-21T17:59:00.004Z,4.97
2023-05-21T18:01:48.559Z,4.93
2023-05-21T18:04:38.733Z,4.67
2023-05-21T18:07:27.276Z,4.50
2023-05-21T18:10:16.321Z,4.63
2023-05-21T18:13:04.795Z,4.47
2023-05-21T18:15:53.364Z,4.30
2023-05-21T18:18:43.134Z,4.60
2023-05-21T18:21:33.138Z,7.73
2023-05-21T18:24:21.753Z,5.20
2023-05-21T18:27:10.272Z,4.60
2023-05-21T18:30:02.433Z,4.63
2023-05-21T18:32:51.269Z,4.30
2023-05-21T18:35:39.835Z,4.83
2023-05-21T18:38:29.717Z,6.80
2023-05-21T18:41:19.960Z,4.70
2023-05-21T18:44:08.560Z,6.10
2023-05-21T18:46:57.785Z,5.30
2023-05-21T18:49:46.546Z,7.30
2023-05-21T18:52:35.170Z,8.03
2023-05-21T18:55:25.160Z,8.63
2023-05-21T18:58:13.736Z,5.03
2023-05-21T19:01:02.418Z,12.83
2023-05-21T19:03:50.999Z,8.13
2023-05-21T19:06:39.608Z,4.80
2023-05-21T19:09:28.123Z,6.83
2023-05-21T19:12:18.189Z,11.70
2023-05-21T19:15:07.802Z,13.70
2023-05-21T19:17:56.534Z,5.33
2023-05-21T19:20:45.024Z,10.63
2023-05-21T19:23:41.374Z,4.40
2023-05-21T19:26:40.301Z,4.20
2023-05-21T19:29:30.087Z,4.20
2023-05-21T19:32:18.591Z,4.00
2023-05-21T19:35:08.275Z,5.30
2023-05-21T19:37:59.662Z,4.53
2023-05-21T19:40:50.255Z,5.37
2023-05-21T19:43:38.717Z,4.57
2023-05-21T19:46:28.710Z,6.50
2023-05-21T19:49:17.202Z,4.60
2023-05-21T19:52:06.620Z,5.30
2023-05-21T19:54:55.139Z,4.50
2023-05-21T19:57:43.935Z,4.27
2023-05-21T20:00:33.361Z,4.40
2023-05-21T20:03:26.871Z,4.30
2023-05-21T20:06:19.223Z,4.60
2023-05-21T20:09:08.682Z,4.70
2023-05-21T20:11:57.460Z,4.47
2023-05-21T20:14:46.967Z,5.33
2023-05-21T20:17:36.268Z,4.23
2023-05-21T20:20:26.965Z,6.27
2023-05-21T20:23:15.710Z,4.73
2023-05-21T20:26:05.336Z,4.97
2023-05-21T20:28:55.752Z,4.70
2023-05-21T20:31:44.577Z,4.70
2023-05-21T20:34:33.605Z,4.70
2023-05-21T20:37:27.477Z,5.03
2023-05-21T20:40:16.464Z,4.70
2023-05-21T20:43:05.518Z,7.13
2023-05-21T20:45:59.902Z,5.40
2023-05-21T20:48:50.266Z,4.83
2023-05-21T20:51:38.992Z,4.77
2023-05-21T20:54:30.991Z,6.40
2023-05-21T20:57:19.872Z,4.87
2023-05-21T21:00:15.147Z,4.97
2023-05-21T21:03:04.160Z,4.60
2023-05-21T21:05:53.097Z,4.77
2023-05-21T21:08:41.896Z,4.53
2023-05-21T21:11:32.031Z,4.20
2023-05-21T21:14:20.437Z,5.57
2023-05-21T21:17:09.399Z,4.37
2023-05-21T21:19:58.388Z,4.53
2023-05-21T21:22:47.426Z,4.73
2023-05-21T21:25:36.115Z,4.90
2023-05-21T21:28:26.053Z,6.40
2023-05-21T21:31:14.663Z,4.63
2023-05-21T21:34:03.428Z,4.87
2023-05-21T21:36:52.051Z,4.90
2023-05-21T21:39:40.712Z,5.47
2023-05-21T21:42:29.412Z,5.40
2023-05-21T21:45:19.781Z,4.90
2023-05-21T21:48:08.808Z,5.00
2023-05-21T21:50:57.600Z,5.00
2023-05-21T21:53:46.195Z,5.20
2023-05-21T21:56:35.218Z,5.73
2023-05-21T21:59:24.653Z,4.77
2023-05-21T22:02:15.057Z,4.77
2023-05-21T22:05:04.684Z,7.77
2023-05-21T22:07:53.897Z,4.73
2023-05-21T22:10:42.426Z,5.30
2023-05-21T22:13:30.990Z,5.30
2023-05-21T22:16:20.735Z,5.07
2023-05-21T22:19:12.967Z,4.93
2023-05-21T22:22:04.233Z,4.50
2023-05-21T22:24:52.843Z,6.50
2023-05-21T22:27:42.401Z,5.00
2023-05-21T22:30:31.084Z,4.60
2023-05-21T22:33:19.620Z,5.20
2023-05-21T22:36:10.350Z,5.30
2023-05-21T22:38:58.833Z,4.53
2023-05-21T22:41:47.415Z,5.70
2023-05-21T22:44:35.893Z,4.10
2023-05-21T22:47:24.531Z,4.97
2023-05-21T22:50:13.147Z,4.40
2023-05-21T22:53:03.213Z,4.27
2023-05-21T22:55:51.843Z,5.60
2023-05-21T22:58:40.323Z,4.20
2023-05-21T23:01:28.914Z,4.20
2023-05-21T23:04:17.445Z,4.37
2023-05-21T23:07:06.810Z,4.40
2023-05-21T23:09:56.727Z,4.10
2023-05-21T23:12:45.348Z,4.17
2023-05-21T23:15:34.129Z,4.50
2023-05-21T23:18:22.702Z,4.23
2023-05-21T23:21:11.354Z,5.53
2023-05-21T23:23:59.976Z,5.90
2023-05-21T23:26:49.942Z,4.10
2023-05-21T23:29:38.648Z,3.87
2023-05-21T23:32:27.466Z,3.90
2023-05-21T23:35:16.295Z,4.10
2023-05-21T23:38:04.781Z,3.47
2023-05-21T23:40:53.429Z,4.00
2023-05-21T23:43:43.371Z,3.90
2023-05-21T23:46:31.834Z,4.03
2023-05-21T23:49:20.444Z,3.80
2023-05-21T23:52:09.381Z,3.80
2023-05-21T23:54:59.226Z,3.60
2023-05-21T23:57:47.794Z,3.80
